createdAt,value
2023-12-07T00:00:57.878Z,95.5
2023-12-07T00:02:11.976Z,95.6
2023-12-07T00:03:22.850Z,95.5
2023-12-07T00:04:33.727Z,95.6
2023-12-07T00:05:47.825Z,95.6
2023-12-07T00:07:01.973Z,95.5
2023-12-07T00:08:16.094Z,95.6
2023-12-07T00:09:30.249Z,95.5
2023-12-07T00:11:58.470Z,95.6
2023-12-07T00:13:12.630Z,95.7
2023-12-07T00:14:26.735Z,95.8
2023-12-07T00:15:40.870Z,95.8
2023-12-07T00:16:51.742Z,95.7
2023-12-07T00:18:02.589Z,95.7
2023-12-07T00:19:16.736Z,95.6
2023-12-07T00:20:30.896Z,95.5
2023-12-07T00:21:45.011Z,95.3
2023-12-07T00:22:59.158Z,95.3
2023-12-07T00:25:27.364Z,95.4
2023-12-07T00:26:41.501Z,95.4
2023-12-07T00:27:55.646Z,95.4
2023-12-07T00:30:20.640Z,95.5
2023-12-07T00:31:31.523Z,95.5
2023-12-07T00:32:45.656Z,95.4
2023-12-07T00:33:59.750Z,95.5
2023-12-07T00:36:28.049Z,95.5
2023-12-07T00:37:42.125Z,95.5
2023-12-07T00:38:56.267Z,95.6
2023-12-07T00:40:10.407Z,95.8
2023-12-07T00:41:24.548Z,95.5
2023-12-07T00:42:38.649Z,95.5
2023-12-07T00:43:49.533Z,95.5
2023-12-07T00:44:59.979Z,95.5
2023-12-07T00:46:14.098Z,95.4
2023-12-07T00:47:28.225Z,95.5
2023-12-07T00:49:56.479Z,95.5
2023-12-07T00:51:10.639Z,95.5
2023-12-07T00:52:24.751Z,95.5
2023-12-07T00:53:38.879Z,95.5
2023-12-07T00:54:52.982Z,95.5
2023-12-07T00:56:07.107Z,95.6
2023-12-07T00:59:42.962Z,95.6
2023-12-07T01:00:57.095Z,95.6
2023-12-07T01:02:11.266Z,95.6
2023-12-07T01:04:39.514Z,95.5
2023-12-07T01:05:53.604Z,95.6
2023-12-07T01:07:07.798Z,95.6
2023-12-07T01:09:36.045Z,95.5
2023-12-07T01:13:11.880Z,95.3
2023-12-07T01:14:25.983Z,95.2
2023-12-07T01:15:40.171Z,95.4
2023-12-07T01:16:54.274Z,95.3
2023-12-07T01:18:08.421Z,95.3
2023-12-07T01:19:22.497Z,95.3
2023-12-07T01:20:36.645Z,95.3
2023-12-07T01:21:50.769Z,95.3
2023-12-07T01:23:04.947Z,95.4
2023-12-07T01:24:15.787Z,95.5
2023-12-07T01:25:26.661Z,95.5
2023-12-07T01:27:54.937Z,95.6
2023-12-07T01:29:09.034Z,95.5
2023-12-07T01:30:23.175Z,95.6
2023-12-07T01:31:37.278Z,95.6
2023-12-07T01:32:51.414Z,95.7
2023-12-07T01:34:05.571Z,95.6
2023-12-07T01:35:19.715Z,95.5
2023-12-07T01:36:33.810Z,95.5
2023-12-07T01:37:44.705Z,95.6
2023-12-07T01:38:55.298Z,95.6
2023-12-07T01:40:17.530Z,95.6
2023-12-07T01:41:31.621Z,95.7
2023-12-07T01:42:45.735Z,95.7
2023-12-07T01:43:59.875Z,95.8
2023-12-07T01:45:14.041Z,95.9
2023-12-07T01:46:28.145Z,96
2023-12-07T01:47:42.291Z,96.1
2023-12-07T01:48:56.389Z,96.1
2023-12-07T01:50:07.275Z,96.1
2023-12-07T01:51:17.894Z,96
2023-12-07T01:53:54.282Z,96
2023-12-07T01:55:08.359Z,96
2023-12-07T01:57:36.606Z,96.1
2023-12-07T01:58:50.742Z,96.2
2023-12-07T02:01:18.999Z,96.1
2023-12-07T02:03:40.720Z,96.1
2023-12-07T02:04:54.849Z,96.1
2023-12-07T02:06:09.015Z,96.1
2023-12-07T02:07:23.110Z,96.3
2023-12-07T02:08:37.255Z,96.3
2023-12-07T02:09:51.459Z,96.3
2023-12-07T02:11:13.728Z,96.3
2023-12-07T02:12:27.814Z,96.3
2023-12-07T02:13:42.012Z,96.3
2023-12-07T02:14:52.816Z,96.3
2023-12-07T02:16:03.704Z,96.3
2023-12-07T02:18:31.960Z,96.2
2023-12-07T02:19:46.125Z,96.1
2023-12-07T02:21:00.208Z,96
2023-12-07T02:22:14.417Z,96.1
2023-12-07T02:23:36.637Z,96.1
2023-12-07T02:24:50.782Z,96.1
2023-12-07T02:26:04.923Z,96.1
2023-12-07T02:27:15.817Z,96.2
2023-12-07T02:28:26.686Z,96.2
2023-12-07T02:29:40.784Z,96.1
2023-12-07T02:32:09.032Z,96.3
2023-12-07T02:33:23.183Z,96.2
2023-12-07T02:34:37.362Z,96.3
2023-12-07T02:35:59.636Z,96.3
2023-12-07T02:37:13.733Z,96.4
2023-12-07T02:38:27.882Z,96.3
2023-12-07T02:39:38.757Z,96.2
2023-12-07T02:40:49.627Z,96.3
2023-12-07T02:42:03.709Z,96.2
2023-12-07T02:43:17.885Z,96.3
2023-12-07T02:44:31.968Z,96.3
2023-12-07T02:45:46.127Z,96.4
2023-12-07T02:47:00.348Z,96.4
2023-12-07T02:48:22.573Z,96.4
2023-12-07T02:50:50.828Z,96.4
2023-12-07T02:52:01.707Z,96.4
2023-12-07T02:53:12.565Z,96.4
2023-12-07T02:54:26.672Z,96.4
2023-12-07T02:55:40.811Z,96.3
2023-12-07T02:56:54.934Z,96.4
2023-12-07T02:58:09.052Z,96.3
2023-12-07T02:59:23.211Z,96.4
2023-12-07T03:00:37.313Z,96.4
2023-12-07T03:01:51.485Z,96.4
2023-12-07T03:03:05.637Z,96.4
2023-12-07T03:04:19.764Z,96.3
2023-12-07T03:06:41.427Z,96.4
2023-12-07T03:07:55.642Z,96.5
2023-12-07T03:09:17.868Z,96.6
2023-12-07T03:13:00.306Z,96.7
2023-12-07T03:15:28.550Z,96.8
2023-12-07T03:16:42.676Z,96.8
2023-12-07T03:17:53.581Z,96.8
2023-12-07T03:19:04.391Z,96.8
2023-12-07T03:20:18.563Z,96.9
2023-12-07T03:22:46.810Z,96.9
2023-12-07T03:24:00.944Z,96.9
2023-12-07T03:25:15.037Z,97
2023-12-07T03:27:43.282Z,97
2023-12-07T03:28:57.449Z,97.1
2023-12-07T03:31:22.466Z,97
2023-12-07T03:32:33.334Z,97.2
2023-12-07T03:33:47.434Z,97.2
2023-12-07T03:35:01.583Z,97.2
2023-12-07T03:36:15.686Z,97.3
2023-12-07T03:37:29.794Z,97.3
2023-12-07T03:38:43.922Z,97.4
2023-12-07T03:39:58.112Z,97.4
2023-12-07T03:41:12.204Z,97.3
2023-12-07T03:42:26.321Z,97.3
2023-12-07T03:43:40.451Z,97.3
2023-12-07T03:44:51.000Z,97.3
2023-12-07T03:46:02.212Z,97.3
2023-12-07T03:47:16.330Z,97.2
2023-12-07T03:48:30.473Z,97.3
2023-12-07T03:49:44.567Z,97.3
2023-12-07T03:50:58.714Z,97.3
2023-12-07T03:52:12.856Z,97.4
2023-12-07T03:53:27.061Z,97.4
2023-12-07T03:54:49.325Z,97.4
2023-12-07T03:56:03.396Z,97.5
2023-12-07T03:57:14.317Z,97.5
2023-12-07T03:58:25.182Z,97.5
2023-12-07T03:59:39.279Z,97.5
2023-12-07T04:00:53.403Z,97.5
2023-12-07T04:02:07.557Z,97.4
2023-12-07T04:03:21.641Z,97.4
2023-12-07T04:04:35.804Z,97.4
2023-12-07T04:05:49.987Z,97.3
2023-12-07T04:08:26.396Z,97.2
2023-12-07T04:10:48.135Z,97.2
2023-12-07T04:12:02.229Z,97.2
2023-12-07T04:13:16.374Z,97.1
2023-12-07T04:14:30.517Z,97.1
2023-12-07T04:15:44.654Z,97.2
2023-12-07T04:16:58.754Z,97.2
2023-12-07T04:18:12.873Z,97.2
2023-12-07T04:19:27.050Z,97.2
2023-12-07T04:20:41.238Z,97.2
2023-12-07T04:21:58.548Z,97.1
2023-12-07T04:23:09.441Z,97.1
2023-12-07T04:24:23.506Z,97.2
2023-12-07T04:25:37.706Z,97.2
2023-12-07T04:26:51.812Z,97.1
2023-12-07T04:28:05.913Z,97.1
2023-12-07T04:29:20.093Z,97.1
2023-12-07T04:30:34.210Z,97.1
2023-12-07T04:31:48.335Z,97.1
2023-12-07T04:33:02.501Z,97.1
2023-12-07T04:34:19.858Z,97.2
2023-12-07T04:35:30.689Z,97.2
2023-12-07T04:36:44.841Z,97.1
2023-12-07T04:39:13.141Z,97.1
2023-12-07T04:40:27.262Z,97
2023-12-07T04:41:41.378Z,97
2023-12-07T04:42:55.515Z,97
2023-12-07T04:44:09.598Z,96.9
2023-12-07T04:45:23.787Z,96.9
2023-12-07T04:46:37.897Z,96.9
2023-12-07T04:47:48.739Z,96.8
2023-12-07T04:48:59.608Z,96.8
2023-12-07T04:50:13.741Z,96.7
2023-12-07T04:51:27.849Z,96.7
2023-12-07T04:52:41.964Z,96.7
2023-12-07T04:53:56.127Z,96.7
2023-12-07T04:55:10.251Z,96.5
2023-12-07T04:57:38.551Z,96.5
2023-12-07T04:58:52.659Z,96.4
2023-12-07T05:00:06.764Z,96.3
2023-12-07T05:01:17.673Z,96.2
2023-12-07T05:02:28.494Z,96.1
2023-12-07T05:03:42.664Z,96
2023-12-07T05:04:56.757Z,96
2023-12-07T05:07:25.037Z,95.9
2023-12-07T05:09:53.314Z,95.9
2023-12-07T05:11:07.519Z,95.9
2023-12-07T05:16:05.621Z,95.9
2023-12-07T05:17:19.676Z,95.9
2023-12-07T05:18:33.866Z,95.8
2023-12-07T05:19:47.988Z,95.7
2023-12-07T05:21:02.106Z,95.7
2023-12-07T05:22:16.208Z,95.7
2023-12-07T05:23:30.353Z,95.7
2023-12-07T05:24:44.485Z,95.7
2023-12-07T05:25:58.607Z,95.7
2023-12-07T05:27:09.230Z,95.6
2023-12-07T05:28:20.112Z,95.8
2023-12-07T05:29:34.231Z,95.8
2023-12-07T05:30:48.326Z,95.8
2023-12-07T05:32:02.448Z,95.8
2023-12-07T05:34:30.734Z,95.9
2023-12-07T05:35:44.834Z,96
2023-12-07T05:36:58.950Z,96
2023-12-07T05:38:13.100Z,95.9
2023-12-07T05:39:27.258Z,95.9
2023-12-07T05:40:41.343Z,96
2023-12-07T05:41:52.263Z,96
2023-12-07T05:43:03.110Z,96.1
2023-12-07T05:44:17.244Z,96.1
2023-12-07T05:47:59.646Z,96.1
2023-12-07T05:49:13.736Z,96.2
2023-12-07T05:50:27.894Z,96.2
2023-12-07T05:51:41.992Z,96.2
2023-12-07T05:52:56.142Z,96.3
2023-12-07T05:54:10.245Z,96.3
2023-12-07T05:55:21.145Z,96.3
2023-12-07T05:56:31.988Z,96.3
2023-12-07T05:57:46.118Z,96.3
2023-12-07T05:59:00.240Z,96.4
2023-12-07T06:00:14.358Z,96.4
2023-12-07T06:01:28.520Z,96.4
2023-12-07T06:02:42.667Z,96.4
2023-12-07T06:03:56.777Z,96.4
2023-12-07T06:05:10.915Z,96.4
2023-12-07T06:06:25.060Z,96.4
2023-12-07T06:07:39.134Z,96.3
2023-12-07T06:08:50.031Z,96.3
2023-12-07T06:10:00.916Z,96.3
2023-12-07T06:11:15.042Z,96.3
2023-12-07T06:12:29.257Z,96.2
2023-12-07T06:13:51.489Z,96.1
2023-12-07T06:18:47.948Z,96
2023-12-07T06:20:02.096Z,96
2023-12-07T06:23:37.933Z,96
2023-12-07T06:24:52.089Z,96
2023-12-07T06:26:06.249Z,96.1
2023-12-07T06:27:20.391Z,96.1
2023-12-07T06:28:34.506Z,96
2023-12-07T06:29:48.730Z,96
2023-12-07T06:31:10.989Z,95.8
2023-12-07T06:32:33.224Z,95.8
2023-12-07T06:33:44.111Z,96
2023-12-07T06:36:09.106Z,95.8
2023-12-07T06:37:23.253Z,95.8
2023-12-07T06:41:05.592Z,95.6
2023-12-07T06:42:19.737Z,95.6
2023-12-07T06:43:33.888Z,95.6
2023-12-07T06:44:47.978Z,95.6
2023-12-07T06:46:02.174Z,95.5
2023-12-07T06:47:13.005Z,95.4
2023-12-07T06:48:23.402Z,95.4
2023-12-07T06:49:37.564Z,95.3
2023-12-07T06:50:51.671Z,95.3
2023-12-07T06:52:05.826Z,95.3
2023-12-07T06:54:34.055Z,95.2
2023-12-07T06:57:02.373Z,95.3
2023-12-07T06:58:16.490Z,95.2
2023-12-07T06:59:30.631Z,95.3
2023-12-07T07:00:41.471Z,95.2
2023-12-07T07:01:52.334Z,95.2
2023-12-07T07:03:06.466Z,95.2
2023-12-07T07:04:20.592Z,95.1
2023-12-07T07:05:34.739Z,95.1
2023-12-07T07:08:02.974Z,95.1
2023-12-07T07:11:45.353Z,94.9
2023-12-07T07:12:59.466Z,94.8
2023-12-07T07:14:10.327Z,94.7
2023-12-07T07:15:21.189Z,94.7
2023-12-07T07:17:49.473Z,94.5
2023-12-07T07:19:03.618Z,94.4
2023-12-07T07:20:17.712Z,94.3
2023-12-07T07:21:31.854Z,94.3
2023-12-07T07:22:45.966Z,94.3
2023-12-07T07:24:00.116Z,94.3
2023-12-07T07:25:14.274Z,94.1
2023-12-07T07:27:39.265Z,94.1
2023-12-07T07:28:50.099Z,94.1
2023-12-07T07:30:04.215Z,94.1
2023-12-07T07:32:32.507Z,94.1
2023-12-07T07:33:46.616Z,94.1
2023-12-07T07:35:00.756Z,94.1
2023-12-07T07:37:29.012Z,94.2
2023-12-07T07:39:57.260Z,94.2
2023-12-07T07:41:08.166Z,94.2
2023-12-07T07:42:19.017Z,94.2
2023-12-07T07:44:47.262Z,94.3
2023-12-07T07:46:01.380Z,94.3
2023-12-07T07:48:29.646Z,94.1
2023-12-07T07:49:43.759Z,94.2
2023-12-07T07:50:57.918Z,94.2
2023-12-07T07:52:12.041Z,94.1
2023-12-07T07:53:26.184Z,94
2023-12-07T07:54:37.027Z,94
2023-12-07T07:55:47.899Z,94
2023-12-07T07:57:02.033Z,93.8
2023-12-07T07:58:16.145Z,93.8
2023-12-07T07:59:30.298Z,93.8
2023-12-07T08:00:44.435Z,93.5
2023-12-07T08:01:58.541Z,93.5
2023-12-07T08:04:26.808Z,93.3
2023-12-07T08:05:40.931Z,93.2
2023-12-07T08:06:55.059Z,93.2
2023-12-07T08:08:05.899Z,93
2023-12-07T08:09:16.776Z,92.8
2023-12-07T08:10:30.916Z,92.6
2023-12-07T08:11:45.019Z,92.5
2023-12-07T08:12:59.152Z,92.4
2023-12-07T08:14:13.407Z,92.2
2023-12-07T08:18:03.864Z,91.8
2023-12-07T08:20:28.858Z,91.8
2023-12-07T08:21:39.311Z,91.5
2023-12-07T08:22:53.440Z,91.2
2023-12-07T08:25:21.693Z,90.7
2023-12-07T08:26:35.799Z,90.1
2023-12-07T08:27:49.998Z,89.2
2023-12-07T08:29:04.084Z,88.9
2023-12-07T08:30:18.249Z,88.4
2023-12-07T08:35:08.206Z,85.6
2023-12-07T08:37:44.619Z,85.9
2023-12-07T08:38:58.856Z,86.5
2023-12-07T08:42:49.340Z,84.4
2023-12-07T08:45:17.632Z,82.6
2023-12-07T08:46:28.475Z,82.5
2023-12-07T08:47:39.334Z,82.7
2023-12-07T08:51:21.743Z,84.4
2023-12-07T08:52:35.871Z,85
2023-12-07T08:53:49.960Z,85.3
2023-12-07T08:55:04.145Z,85.5
2023-12-07T08:57:32.393Z,85.5
2023-12-07T08:58:46.550Z,85.4
2023-12-07T08:59:57.382Z,84.3
2023-12-07T09:02:22.360Z,81.1
2023-12-07T09:03:36.467Z,81
2023-12-07T09:07:18.879Z,81.6
2023-12-07T09:09:47.165Z,82.5
2023-12-07T09:11:01.255Z,82.8
2023-12-07T09:12:15.393Z,82.8
2023-12-07T09:13:25.794Z,82.3
2023-12-07T09:14:36.693Z,81.8
2023-12-07T09:15:50.841Z,81.3
2023-12-07T09:19:33.226Z,79.3
2023-12-07T09:20:47.311Z,78.8
2023-12-07T09:22:01.473Z,78.3
2023-12-07T09:23:15.573Z,77.8
2023-12-07T09:25:43.855Z,75.7
2023-12-07T09:26:54.708Z,74.9
2023-12-07T09:28:05.600Z,73
2023-12-07T09:31:48.009Z,67.7
2023-12-07T09:33:02.135Z,66.1
2023-12-07T09:34:16.195Z,65.5
2023-12-07T09:35:30.320Z,65.4
2023-12-07T09:37:58.592Z,66.9
2023-12-07T09:39:12.768Z,67
2023-12-07T09:41:34.445Z,67.8
2023-12-07T09:42:48.597Z,67.7
2023-12-07T09:46:30.974Z,67.5
2023-12-07T09:48:59.249Z,64
2023-12-07T09:50:13.369Z,62.6
2023-12-07T09:51:27.512Z,61
2023-12-07T09:53:52.500Z,58.2
2023-12-07T09:55:03.379Z,58.8
2023-12-07T09:56:17.509Z,57.3
2023-12-07T09:57:31.613Z,56.6
2023-12-07T09:58:45.727Z,57.6
2023-12-07T09:59:59.878Z,57.9
2023-12-07T10:01:14.006Z,57.9
2023-12-07T10:04:56.424Z,56
2023-12-07T10:06:10.552Z,56.4
2023-12-07T10:07:21.413Z,56
2023-12-07T10:08:31.828Z,55
2023-12-07T10:09:45.965Z,55.7
2023-12-07T10:11:00.039Z,55.8
2023-12-07T10:12:14.206Z,57.1
2023-12-07T10:13:28.358Z,57.8
2023-12-07T10:17:10.679Z,60.1
2023-12-07T10:18:24.823Z,60.4
2023-12-07T10:19:39.000Z,60.5
2023-12-07T10:20:49.871Z,61.6
2023-12-07T10:22:00.676Z,61.6
2023-12-07T10:23:14.849Z,63.8
2023-12-07T10:24:28.946Z,65.3
2023-12-07T10:25:43.098Z,66.1
2023-12-07T10:26:57.183Z,65.9
2023-12-07T10:28:11.347Z,65.4
2023-12-07T10:29:25.471Z,65.3
2023-12-07T10:30:39.604Z,63.7
2023-12-07T10:31:53.752Z,62.7
2023-12-07T10:34:18.754Z,61.9
2023-12-07T10:36:43.690Z,60.3
2023-12-07T10:37:57.837Z,60.5
2023-12-07T10:40:26.084Z,58.4
2023-12-07T10:41:40.253Z,57.2
2023-12-07T10:42:54.441Z,54.4
2023-12-07T10:44:16.680Z,52.2
2023-12-07T10:45:30.796Z,50.2
2023-12-07T10:47:52.528Z,48
2023-12-07T10:49:06.683Z,48.6
2023-12-07T10:50:20.802Z,48.8
2023-12-07T10:51:34.913Z,47.6
2023-12-07T10:52:49.034Z,46.2
2023-12-07T10:54:03.187Z,45
2023-12-07T10:55:17.344Z,43.9
2023-12-07T10:56:31.426Z,42.9
2023-12-07T10:57:45.569Z,42.5
2023-12-07T10:58:59.740Z,42.2
2023-12-07T11:00:10.158Z,43.2
2023-12-07T11:01:20.994Z,43.2
2023-12-07T11:02:35.162Z,43.4
2023-12-07T11:03:49.257Z,45
2023-12-07T11:05:03.369Z,48
2023-12-07T11:07:31.617Z,53.6
2023-12-07T11:08:45.782Z,54.9
2023-12-07T11:09:59.889Z,56.7
2023-12-07T11:11:14.041Z,58.9
2023-12-07T11:12:28.134Z,60.2
2023-12-07T11:13:39.012Z,61.5
2023-12-07T11:14:49.622Z,62.3
2023-12-07T11:16:11.000Z,62.1
2023-12-07T11:17:25.954Z,56.1
2023-12-07T11:21:08.360Z,45.4
2023-12-07T11:22:22.501Z,44.3
2023-12-07T11:24:50.738Z,42.4
2023-12-07T11:26:01.613Z,43.7
2023-12-07T11:27:12.502Z,43.3
2023-12-07T11:28:26.593Z,42.8
2023-12-07T11:29:40.754Z,42.5
2023-12-07T11:30:54.875Z,41.3
2023-12-07T11:32:09.029Z,41.3
2023-12-07T11:33:23.207Z,40.6
2023-12-07T11:37:13.705Z,40.2
2023-12-07T11:38:24.165Z,39.5
2023-12-07T11:40:49.128Z,38.2
2023-12-07T11:43:17.382Z,37.3
2023-12-07T11:45:45.636Z,36.4
2023-12-07T11:48:13.888Z,37
2023-12-07T11:49:28.077Z,37.7
2023-12-07T11:50:42.197Z,37.8
2023-12-07T11:54:18.008Z,37.3
2023-12-07T11:56:46.325Z,37.9
2023-12-07T11:58:00.422Z,38.3
2023-12-07T12:00:28.651Z,41.3
2023-12-07T12:01:42.837Z,41.6
2023-12-07T12:02:56.940Z,42.1
2023-12-07T12:05:21.965Z,43
2023-12-07T12:07:46.941Z,44
2023-12-07T12:10:15.198Z,44.4
2023-12-07T12:12:43.458Z,47
2023-12-07T12:13:57.586Z,48.5
2023-12-07T12:15:11.677Z,49.7
2023-12-07T12:16:25.853Z,50.4
2023-12-07T12:17:39.997Z,51
2023-12-07T12:18:50.813Z,51.9
2023-12-07T12:23:44.045Z,52.6
2023-12-07T12:24:58.213Z,51.4
2023-12-07T12:26:12.321Z,50.9
2023-12-07T12:27:26.466Z,49.3
2023-12-07T12:28:40.590Z,48.6
2023-12-07T12:29:54.746Z,48.1
2023-12-07T12:31:08.849Z,47.8
2023-12-07T12:32:19.693Z,47
2023-12-07T12:33:30.561Z,46.1
2023-12-07T12:34:44.745Z,45.4
2023-12-07T12:37:12.992Z,43.2
2023-12-07T12:38:27.127Z,42.4
2023-12-07T12:39:41.193Z,42.5
2023-12-07T12:40:55.330Z,42.6
2023-12-07T12:42:09.462Z,42.7
2023-12-07T12:43:23.620Z,42.4
2023-12-07T12:44:37.710Z,42.3
2023-12-07T12:45:48.198Z,42
2023-12-07T12:46:59.022Z,43.8
2023-12-07T12:48:13.197Z,44.6
2023-12-07T12:49:27.326Z,45.4
2023-12-07T12:50:41.511Z,45.8
2023-12-07T12:52:03.764Z,45.7
2023-12-07T12:53:17.843Z,46.6
2023-12-07T12:54:31.996Z,48
2023-12-07T12:57:00.225Z,48.1
2023-12-07T12:59:21.954Z,47
2023-12-07T13:00:36.092Z,46.9
2023-12-07T13:01:50.266Z,46.5
2023-12-07T13:03:04.411Z,46
2023-12-07T13:04:18.520Z,46.1
2023-12-07T13:05:32.752Z,46
2023-12-07T13:06:54.964Z,46.6
2023-12-07T13:08:09.056Z,47.4
2023-12-07T13:09:23.242Z,48.4
2023-12-07T13:10:34.105Z,49.5
2023-12-07T13:11:44.905Z,49.8
2023-12-07T13:14:13.230Z,49.6
2023-12-07T13:15:27.336Z,50
2023-12-07T13:16:41.456Z,50
2023-12-07T13:17:55.593Z,50.1
2023-12-07T13:19:09.669Z,49.7
2023-12-07T13:21:37.978Z,49.9
2023-12-07T13:22:52.110Z,50.5
2023-12-07T13:24:02.932Z,50.1
2023-12-07T13:25:13.842Z,50.3
2023-12-07T13:26:27.960Z,50.5
2023-12-07T13:27:42.066Z,50.8
2023-12-07T13:28:56.202Z,50.7
2023-12-07T13:30:10.357Z,50.6
2023-12-07T13:31:24.454Z,51
2023-12-07T13:32:38.590Z,51.9
2023-12-07T13:33:52.702Z,52.7
2023-12-07T13:35:06.873Z,53.7
2023-12-07T13:37:31.865Z,55.2
2023-12-07T13:38:42.744Z,55.8
2023-12-07T13:39:56.847Z,57.1
2023-12-07T13:41:10.947Z,58.4
2023-12-07T13:42:25.129Z,59.6
2023-12-07T13:43:39.262Z,60.5
2023-12-07T13:46:07.465Z,62.3
2023-12-07T13:47:21.585Z,62.5
2023-12-07T13:49:49.908Z,63.6
2023-12-07T13:52:11.564Z,64.8
2023-12-07T13:54:39.895Z,66.2
2023-12-07T13:55:54.024Z,66.6
2023-12-07T13:58:22.229Z,67.1
2023-12-07T13:59:36.386Z,67.7
2023-12-07T14:00:50.460Z,68
2023-12-07T14:02:04.615Z,68.4
2023-12-07T14:03:18.734Z,68.7
2023-12-07T14:06:54.626Z,69.2
2023-12-07T14:08:08.750Z,69.8
2023-12-07T14:10:37.031Z,70.8
2023-12-07T14:13:05.248Z,70.4
2023-12-07T14:14:19.412Z,70.1
2023-12-07T14:15:33.546Z,70.5
2023-12-07T14:16:47.612Z,70.7
2023-12-07T14:17:58.527Z,70.9
2023-12-07T14:19:08.911Z,71
2023-12-07T14:20:23.077Z,71.3
2023-12-07T14:21:37.175Z,71.3
2023-12-07T14:22:51.311Z,71.4
2023-12-07T14:24:05.468Z,71.3
2023-12-07T14:25:19.566Z,71.4
2023-12-07T14:26:33.700Z,71.7
2023-12-07T14:27:47.871Z,71.8
2023-12-07T14:29:02.000Z,72.3
2023-12-07T14:30:16.069Z,72.4
2023-12-07T14:31:27.001Z,72.6
2023-12-07T14:32:37.804Z,72.8
2023-12-07T14:35:06.110Z,75.3
2023-12-07T14:36:20.218Z,74.7
2023-12-07T14:37:34.377Z,74.2
2023-12-07T14:42:30.848Z,72.8
2023-12-07T14:43:44.987Z,73
2023-12-07T14:44:55.862Z,73.2
2023-12-07T14:46:06.702Z,73.2
2023-12-07T14:47:20.877Z,73.3
2023-12-07T14:48:35.002Z,73.7
2023-12-07T14:49:49.131Z,73.8
2023-12-07T14:51:03.241Z,74
2023-12-07T14:52:17.428Z,74.3
2023-12-07T14:53:39.686Z,74.4
2023-12-07T14:56:07.973Z,74.5
2023-12-07T14:57:18.815Z,74.8
2023-12-07T14:59:43.767Z,75.2
2023-12-07T15:00:57.945Z,74.9
2023-12-07T15:04:40.317Z,75.2
2023-12-07T15:07:08.554Z,75.6
2023-12-07T15:08:22.684Z,75.7
2023-12-07T15:13:12.663Z,76.5
2023-12-07T15:14:26.855Z,76.7
2023-12-07T15:15:40.935Z,77
2023-12-07T15:16:55.113Z,77.3
2023-12-07T15:20:37.496Z,78
2023-12-07T15:24:16.579Z,78.3
2023-12-07T15:25:26.998Z,78.5
2023-12-07T15:27:55.311Z,78.6
2023-12-07T15:29:09.384Z,78.5
2023-12-07T15:31:37.640Z,78.6
2023-12-07T15:32:51.799Z,78.8
2023-12-07T15:34:05.917Z,78.8
2023-12-07T15:35:20.021Z,79
2023-12-07T15:36:34.181Z,79
2023-12-07T15:37:45.019Z,79.2
2023-12-07T15:38:55.904Z,79.3
2023-12-07T15:42:38.271Z,79.7
2023-12-07T15:43:52.404Z,79.9
2023-12-07T15:45:06.583Z,80.2
2023-12-07T15:46:20.653Z,80.3
2023-12-07T15:47:34.853Z,80.5
2023-12-07T15:48:48.936Z,80.8
2023-12-07T15:50:03.116Z,80.7
2023-12-07T15:51:13.960Z,80.7
2023-12-07T15:52:24.839Z,80.9
2023-12-07T15:53:38.971Z,81.2
2023-12-07T15:56:07.169Z,81.2
2023-12-07T15:57:21.307Z,81.3
2023-12-07T15:58:35.488Z,81.5
2023-12-07T15:59:49.578Z,81.6
2023-12-07T16:01:03.692Z,81.7
2023-12-07T16:02:17.811Z,81.7
2023-12-07T16:03:31.972Z,81.6
2023-12-07T16:04:42.818Z,81.8
2023-12-07T16:05:53.672Z,81.9
2023-12-07T16:07:07.818Z,82
2023-12-07T16:09:44.260Z,81.9
2023-12-07T16:10:58.401Z,82.2
2023-12-07T16:12:12.556Z,82.1
2023-12-07T16:13:26.664Z,82
2023-12-07T16:14:40.791Z,82.2
2023-12-07T16:15:54.957Z,82.1
2023-12-07T16:18:16.645Z,82.2
2023-12-07T16:19:30.811Z,82.2
2023-12-07T16:20:44.896Z,82.1
2023-12-07T16:21:59.066Z,82
2023-12-07T16:23:13.187Z,81.8
2023-12-07T16:25:41.396Z,81.9
2023-12-07T16:26:55.556Z,82
2023-12-07T16:28:09.720Z,82.3
2023-12-07T16:29:23.860Z,82.3
2023-12-07T16:30:34.693Z,82.4
2023-12-07T16:31:45.528Z,82.2
2023-12-07T16:32:59.644Z,82.2
2023-12-07T16:34:13.823Z,82.2
2023-12-07T16:35:27.940Z,82.3
2023-12-07T16:36:42.082Z,82.1
2023-12-07T16:37:56.165Z,82.1
2023-12-07T16:40:24.455Z,82.4
2023-12-07T16:41:38.623Z,82.4
2023-12-07T16:42:52.744Z,82.4
2023-12-07T16:44:03.595Z,82.2
2023-12-07T16:45:14.468Z,81.8
2023-12-07T16:46:28.595Z,81.5
2023-12-07T16:48:56.857Z,81.6
2023-12-07T16:50:10.917Z,81.8
2023-12-07T16:51:25.120Z,81.8
2023-12-07T16:52:39.211Z,81.6
2023-12-07T16:53:53.359Z,81.8
2023-12-07T16:55:07.438Z,81.8
2023-12-07T16:57:32.491Z,81.5
2023-12-07T16:58:43.314Z,81.5
2023-12-07T17:01:11.569Z,81.8
2023-12-07T17:02:25.705Z,81.9
2023-12-07T17:03:39.833Z,82.1
2023-12-07T17:06:08.067Z,82.2
2023-12-07T17:07:22.263Z,82.1
2023-12-07T17:09:50.488Z,82.3
2023-12-07T17:11:01.370Z,82.4
2023-12-07T17:12:12.263Z,82.4
2023-12-07T17:13:26.341Z,82.5
2023-12-07T17:14:40.496Z,82.4
2023-12-07T17:15:54.601Z,82.2
2023-12-07T17:18:22.861Z,82.5
2023-12-07T17:19:36.995Z,82.5
2023-12-07T17:22:05.225Z,82.7
2023-12-07T17:25:41.153Z,82.8
2023-12-07T17:26:55.252Z,82.9
2023-12-07T17:29:23.490Z,83.2
2023-12-07T17:30:37.607Z,83
2023-12-07T17:31:51.727Z,83
2023-12-07T17:33:05.923Z,83.2
2023-12-07T17:34:20.054Z,83.2
2023-12-07T17:35:34.117Z,83.2
2023-12-07T17:36:48.301Z,83.5
2023-12-07T17:37:59.121Z,83.5
2023-12-07T17:39:10.047Z,83.5
2023-12-07T17:40:24.109Z,83.5
2023-12-07T17:42:52.413Z,83.7
2023-12-07T17:45:20.642Z,83.4
2023-12-07T17:46:34.764Z,83.4
2023-12-07T17:49:03.049Z,83.5
2023-12-07T17:50:17.161Z,83.5
2023-12-07T17:51:27.613Z,83.7
2023-12-07T17:52:38.445Z,83.7
2023-12-07T17:53:52.605Z,83.7
2023-12-07T17:55:06.755Z,83.8
2023-12-07T17:56:20.848Z,83.9
2023-12-07T17:58:49.128Z,83.8
2023-12-07T18:00:03.247Z,83.5
2023-12-07T18:03:45.597Z,83.4
2023-12-07T18:04:56.486Z,83.4
2023-12-07T18:06:07.385Z,83.2
2023-12-07T18:07:21.488Z,83.1
2023-12-07T18:08:35.643Z,82.9
2023-12-07T18:09:49.777Z,82.9
2023-12-07T18:11:03.871Z,83.1
2023-12-07T18:13:32.142Z,83.2
2023-12-07T18:14:46.233Z,83.2
2023-12-07T18:16:00.422Z,83.3
2023-12-07T18:17:14.520Z,83.2
2023-12-07T18:18:25.366Z,83.3
2023-12-07T18:19:36.266Z,83.2
2023-12-07T18:24:32.815Z,82.9
2023-12-07T18:25:46.881Z,82.9
2023-12-07T18:27:00.998Z,83.1
2023-12-07T18:29:29.307Z,83.2
2023-12-07T18:34:19.319Z,83.2
2023-12-07T18:35:33.426Z,83.2
2023-12-07T18:38:01.638Z,83.2
2023-12-07T18:39:15.796Z,83.3
2023-12-07T18:40:29.936Z,83.1
2023-12-07T18:41:44.050Z,83
2023-12-07T18:42:58.186Z,82.9
2023-12-07T18:44:12.285Z,82.8
2023-12-07T18:45:23.199Z,82.8
2023-12-07T18:46:34.075Z,82.6
2023-12-07T18:47:48.208Z,82.8
2023-12-07T18:49:02.291Z,82.8
2023-12-07T18:51:30.543Z,83
2023-12-07T18:53:58.842Z,82.8
2023-12-07T18:55:12.979Z,82.6
2023-12-07T18:57:41.182Z,82.4
2023-12-07T18:58:51.755Z,82.5
2023-12-07T19:00:02.573Z,82.6
2023-12-07T19:02:30.868Z,82.7
2023-12-07T19:03:44.992Z,82.8
2023-12-07T19:04:59.066Z,82.5
2023-12-07T19:06:13.239Z,82.5
2023-12-07T19:07:27.382Z,82.5
2023-12-07T19:09:55.599Z,82.4
2023-12-07T19:11:09.722Z,82.4
2023-12-07T19:13:34.764Z,82.3
2023-12-07T19:18:27.573Z,82.2
2023-12-07T19:19:41.714Z,82.1
2023-12-07T19:20:55.844Z,82.2
2023-12-07T19:22:09.928Z,82.3
2023-12-07T19:23:24.080Z,82.3
2023-12-07T19:24:38.202Z,82.3
2023-12-07T19:25:52.343Z,82.4
2023-12-07T19:27:03.172Z,82.5
2023-12-07T19:28:14.097Z,82.1
2023-12-07T19:29:28.179Z,82.2
2023-12-07T19:30:42.358Z,82.4
2023-12-07T19:31:56.418Z,82.4
2023-12-07T19:33:10.563Z,82.4
2023-12-07T19:35:38.855Z,82.3
2023-12-07T19:38:07.111Z,82.4
2023-12-07T19:39:21.251Z,82.5
2023-12-07T19:42:57.077Z,82.4
2023-12-07T19:44:11.247Z,82.3
2023-12-07T19:46:39.449Z,82.4
2023-12-07T19:47:53.605Z,82.5
2023-12-07T19:49:07.709Z,82.6
2023-12-07T19:50:21.882Z,82.5
2023-12-07T19:51:36.009Z,82.4
2023-12-07T19:54:00.987Z,82.1
2023-12-07T19:55:11.879Z,81.9
2023-12-07T19:56:26.015Z,82
2023-12-07T20:00:08.333Z,82
2023-12-07T20:02:36.628Z,82.2
2023-12-07T20:03:50.750Z,82.2
2023-12-07T20:05:04.912Z,82.2
2023-12-07T20:07:29.898Z,82.1
2023-12-07T20:08:40.766Z,82.2
2023-12-07T20:12:23.142Z,82.1
2023-12-07T20:14:51.380Z,82.1
2023-12-07T20:16:05.501Z,82.2
2023-12-07T20:17:19.684Z,82.3
2023-12-07T20:18:33.741Z,82.1
2023-12-07T20:19:47.895Z,82.1
2023-12-07T20:20:58.354Z,82.1
2023-12-07T20:22:09.188Z,82.1
2023-12-07T20:23:23.295Z,82.3
2023-12-07T20:24:37.451Z,82.3
2023-12-07T20:28:19.851Z,82.5
2023-12-07T20:29:34.001Z,82.6
2023-12-07T20:30:48.118Z,82.6
2023-12-07T20:32:02.270Z,82.6
2023-12-07T20:34:27.191Z,82.8
2023-12-07T20:35:38.123Z,82.9
2023-12-07T20:36:52.247Z,82.9
2023-12-07T20:39:20.451Z,82.8
2023-12-07T20:40:34.607Z,82.9
2023-12-07T20:45:31.135Z,83.2
2023-12-07T20:46:45.238Z,83.2